sensor_id;sensor_type;location;lat;lon;timestamp;pressure;altitude;pressure_sealevel;temperature
82297;BMP280;71899;51.992;8.648;2023-08-30T00:00:46;99509.72;;;13.13
82297;BMP280;71899;51.992;8.648;2023-08-30T00:03:12;99509.03;;;13.11
82297;BMP280;71899;51.992;8.648;2023-08-30T00:05:40;99506.69;;;13.38
82297;BMP280;71899;51.992;8.648;2023-08-30T00:08:07;99514.03;;;13.74
82297;BMP280;71899;51.992;8.648;2023-08-30T00:10:32;99510.91;;;14.00
82297;BMP280;71899;51.992;8.648;2023-08-30T00:12:58;99501.69;;;14.15
82297;BMP280;71899;51.992;8.648;2023-08-30T00:15:23;99495.41;;;14.36
82297;BMP280;71899;51.992;8.648;2023-08-30T00:17:48;99496.38;;;14.64
82297;BMP280;71899;51.992;8.648;2023-08-30T00:20:13;99495.13;;;14.68
82297;BMP280;71899;51.992;8.648;2023-08-30T00:22:39;99489.56;;;14.71
82297;BMP280;71899;51.992;8.648;2023-08-30T00:25:04;99490.66;;;14.78
82297;BMP280;71899;51.992;8.648;2023-08-30T00:27:30;99493.16;;;14.70
82297;BMP280;71899;51.992;8.648;2023-08-30T00:29:55;99481.28;;;14.57
82297;BMP280;71899;51.992;8.648;2023-08-30T00:32:20;99485.09;;;14.24
82297;BMP280;71899;51.992;8.648;2023-08-30T00:34:50;99491.03;;;14.07
82297;BMP280;71899;51.992;8.648;2023-08-30T00:37:15;99480.13;;;14.11
82297;BMP280;71899;51.992;8.648;2023-08-30T00:39:40;99484.94;;;14.06
82297;BMP280;71899;51.992;8.648;2023-08-30T00:42:06;99482.75;;;14.11
82297;BMP280;71899;51.992;8.648;2023-08-30T00:44:33;99479.41;;;14.09
82297;BMP280;71899;51.992;8.648;2023-08-30T00:47:00;99477.47;;;14.21
82297;BMP280;71899;51.992;8.648;2023-08-30T00:49:26;99475.00;;;14.19
82297;BMP280;71899;51.992;8.648;2023-08-30T00:51:52;99470.00;;;14.16
82297;BMP280;71899;51.992;8.648;2023-08-30T00:54:17;99472.69;;;14.35
82297;BMP280;71899;51.992;8.648;2023-08-30T00:56:43;99470.72;;;14.28
82297;BMP280;71899;51.992;8.648;2023-08-30T00:59:09;99469.94;;;14.37
82297;BMP280;71899;51.992;8.648;2023-08-30T01:01:34;99471.97;;;14.33
82297;BMP280;71899;51.992;8.648;2023-08-30T01:04:00;99473.06;;;14.31
82297;BMP280;71899;51.992;8.648;2023-08-30T01:06:25;99472.69;;;14.35
82297;BMP280;71899;51.992;8.648;2023-08-30T01:08:52;99472.38;;;14.29
82297;BMP280;71899;51.992;8.648;2023-08-30T01:11:36;99468.81;;;14.39
82297;BMP280;71899;51.992;8.648;2023-08-30T01:14:12;99465.19;;;14.31
82297;BMP280;71899;51.992;8.648;2023-08-30T01:16:38;99472.00;;;14.43
82297;BMP280;71899;51.992;8.648;2023-08-30T01:21:51;99464.13;;;14.43
82297;BMP280;71899;51.992;8.648;2023-08-30T01:24:41;99456.03;;;14.73
82297;BMP280;71899;51.992;8.648;2023-08-30T01:27:12;99454.41;;;14.63
82297;BMP280;71899;51.992;8.648;2023-08-30T01:29:40;99459.53;;;14.83
82297;BMP280;71899;51.992;8.648;2023-08-30T01:32:08;99450.53;;;14.67
82297;BMP280;71899;51.992;8.648;2023-08-30T01:34:36;99452.06;;;14.69
82297;BMP280;71899;51.992;8.648;2023-08-30T01:37:04;99453.72;;;14.80
82297;BMP280;71899;51.992;8.648;2023-08-30T01:39:30;99451.06;;;14.70
82297;BMP280;71899;51.992;8.648;2023-08-30T01:41:56;99451.06;;;14.89
82297;BMP280;71899;51.992;8.648;2023-08-30T01:44:26;99454.81;;;14.87
82297;BMP280;71899;51.992;8.648;2023-08-30T01:46:52;99453.44;;;14.83
82297;BMP280;71899;51.992;8.648;2023-08-30T01:49:19;99460.63;;;14.91
82297;BMP280;71899;51.992;8.648;2023-08-30T01:51:45;99459.06;;;14.98
82297;BMP280;71899;51.992;8.648;2023-08-30T01:54:14;99462.81;;;15.05
82297;BMP280;71899;51.992;8.648;2023-08-30T01:56:42;99454.47;;;15.09
82297;BMP280;71899;51.992;8.648;2023-08-30T01:59:07;99454.56;;;15.17
82297;BMP280;71899;51.992;8.648;2023-08-30T02:01:33;99454.34;;;15.01
82297;BMP280;71899;51.992;8.648;2023-08-30T02:03:59;99445.22;;;15.05
82297;BMP280;71899;51.992;8.648;2023-08-30T02:06:38;99452.31;;;15.32
82297;BMP280;71899;51.992;8.648;2023-08-30T02:11:35;99441.59;;;15.43
82297;BMP280;71899;51.992;8.648;2023-08-30T02:14:04;99448.38;;;15.55
82297;BMP280;71899;51.992;8.648;2023-08-30T02:16:32;99441.97;;;15.58
82297;BMP280;71899;51.992;8.648;2023-08-30T02:18:58;99443.97;;;15.73
82297;BMP280;71899;51.992;8.648;2023-08-30T02:21:24;99436.88;;;15.74
82297;BMP280;71899;51.992;8.648;2023-08-30T02:23:50;99437.06;;;15.72
82297;BMP280;71899;51.992;8.648;2023-08-30T02:26:18;99437.19;;;15.71
82297;BMP280;71899;51.992;8.648;2023-08-30T02:28:43;99438.28;;;15.51
82297;BMP280;71899;51.992;8.648;2023-08-30T02:31:09;99437.63;;;15.66
82297;BMP280;71899;51.992;8.648;2023-08-30T02:33:34;99439.94;;;15.42
82297;BMP280;71899;51.992;8.648;2023-08-30T02:35:59;99445.34;;;15.50
82297;BMP280;71899;51.992;8.648;2023-08-30T02:38:24;99440.72;;;15.62
82297;BMP280;71899;51.992;8.648;2023-08-30T02:40:50;99444.69;;;15.93
82297;BMP280;71899;51.992;8.648;2023-08-30T02:43:15;99444.22;;;15.53
82297;BMP280;71899;51.992;8.648;2023-08-30T02:45:40;99444.19;;;15.62
82297;BMP280;71899;51.992;8.648;2023-08-30T02:48:06;99438.31;;;15.68
82297;BMP280;71899;51.992;8.648;2023-08-30T02:50:31;99440.78;;;15.70
82297;BMP280;71899;51.992;8.648;2023-08-30T02:52:56;99429.34;;;15.61
82297;BMP280;71899;51.992;8.648;2023-08-30T02:55:22;99430.56;;;15.67
82297;BMP280;71899;51.992;8.648;2023-08-30T02:57:47;99427.44;;;15.54
82297;BMP280;71899;51.992;8.648;2023-08-30T03:00:13;99427.34;;;15.73
82297;BMP280;71899;51.992;8.648;2023-08-30T03:02:39;99427.28;;;15.82
82297;BMP280;71899;51.992;8.648;2023-08-30T03:05:05;99421.06;;;15.74
82297;BMP280;71899;51.992;8.648;2023-08-30T03:07:30;99425.63;;;15.81
82297;BMP280;71899;51.992;8.648;2023-08-30T03:09:56;99423.34;;;15.69
82297;BMP280;71899;51.992;8.648;2023-08-30T03:12:21;99425.00;;;15.87
82297;BMP280;71899;51.992;8.648;2023-08-30T03:14:47;99421.47;;;15.79
82297;BMP280;71899;51.992;8.648;2023-08-30T03:17:12;99419.56;;;15.71
82297;BMP280;71899;51.992;8.648;2023-08-30T03:19:38;99417.56;;;15.56
82297;BMP280;71899;51.992;8.648;2023-08-30T03:22:03;99423.84;;;15.45
82297;BMP280;71899;51.992;8.648;2023-08-30T03:24:29;99422.88;;;15.46
82297;BMP280;71899;51.992;8.648;2023-08-30T03:26:54;99421.84;;;15.20
82297;BMP280;71899;51.992;8.648;2023-08-30T03:29:19;99429.56;;;15.31
82297;BMP280;71899;51.992;8.648;2023-08-30T03:31:46;99420.69;;;15.05
82297;BMP280;71899;51.992;8.648;2023-08-30T03:34:11;99418.13;;;15.13
82297;BMP280;71899;51.992;8.648;2023-08-30T03:36:37;99419.59;;;14.98
82297;BMP280;71899;51.992;8.648;2023-08-30T03:39:02;99419.47;;;14.89
82297;BMP280;71899;51.992;8.648;2023-08-30T03:41:28;99425.47;;;14.63
82297;BMP280;71899;51.992;8.648;2023-08-30T03:43:54;99424.31;;;14.94
82297;BMP280;71899;51.992;8.648;2023-08-30T03:46:19;99422.75;;;15.11
82297;BMP280;71899;51.992;8.648;2023-08-30T03:48:44;99430.69;;;14.92
82297;BMP280;71899;51.992;8.648;2023-08-30T03:51:10;99429.38;;;15.15
82297;BMP280;71899;51.992;8.648;2023-08-30T03:53:35;99425.03;;;15.23
82297;BMP280;71899;51.992;8.648;2023-08-30T03:56:00;99424.94;;;15.52
82297;BMP280;71899;51.992;8.648;2023-08-30T03:58:26;99425.63;;;15.45
82297;BMP280;71899;51.992;8.648;2023-08-30T04:00:51;99429.84;;;15.01
82297;BMP280;71899;51.992;8.648;2023-08-30T04:03:16;99423.88;;;15.08
82297;BMP280;71899;51.992;8.648;2023-08-30T04:05:43;99423.63;;;14.92
82297;BMP280;71899;51.992;8.648;2023-08-30T04:08:08;99427.88;;;15.12
82297;BMP280;71899;51.992;8.648;2023-08-30T04:10:40;99421.69;;;14.94
82297;BMP280;71899;51.992;8.648;2023-08-30T04:13:07;99420.31;;;15.27
82297;BMP280;71899;51.992;8.648;2023-08-30T04:15:37;99420.06;;;15.20
82297;BMP280;71899;51.992;8.648;2023-08-30T04:18:03;99411.59;;;14.89
82297;BMP280;71899;51.992;8.648;2023-08-30T04:20:29;99408.63;;;15.02
82297;BMP280;71899;51.992;8.648;2023-08-30T04:22:55;99416.94;;;15.07
82297;BMP280;71899;51.992;8.648;2023-08-30T04:25:22;99409.44;;;15.12
82297;BMP280;71899;51.992;8.648;2023-08-30T04:27:47;99411.19;;;15.21
82297;BMP280;71899;51.992;8.648;2023-08-30T04:30:13;99411.31;;;15.20
82297;BMP280;71899;51.992;8.648;2023-08-30T04:32:38;99405.88;;;15.31
82297;BMP280;71899;51.992;8.648;2023-08-30T04:35:04;99402.75;;;15.45
82297;BMP280;71899;51.992;8.648;2023-08-30T04:37:30;99410.81;;;15.44
82297;BMP280;71899;51.992;8.648;2023-08-30T04:39:57;99409.88;;;15.35
82297;BMP280;71899;51.992;8.648;2023-08-30T04:42:22;99404.03;;;15.41
82297;BMP280;71899;51.992;8.648;2023-08-30T04:44:48;99407.06;;;15.46
82297;BMP280;71899;51.992;8.648;2023-08-30T04:47:13;99410.81;;;15.44
82297;BMP280;71899;51.992;8.648;2023-08-30T04:49:39;99412.41;;;15.27
82297;BMP280;71899;51.992;8.648;2023-08-30T04:52:05;99410.88;;;14.87
82297;BMP280;71899;51.992;8.648;2023-08-30T04:54:30;99402.72;;;14.81
82297;BMP280;71899;51.992;8.648;2023-08-30T04:56:56;99406.31;;;14.89
82297;BMP280;71899;51.992;8.648;2023-08-30T04:59:21;99405.06;;;14.94
82297;BMP280;71899;51.992;8.648;2023-08-30T05:01:47;99398.97;;;14.93
82297;BMP280;71899;51.992;8.648;2023-08-30T05:04:13;99401.88;;;14.90
82297;BMP280;71899;51.992;8.648;2023-08-30T05:06:39;99405.63;;;14.87
82297;BMP280;71899;51.992;8.648;2023-08-30T05:09:04;99401.34;;;14.86
82297;BMP280;71899;51.992;8.648;2023-08-30T05:11:29;99407.00;;;14.92
82297;BMP280;71899;51.992;8.648;2023-08-30T05:13:55;99409.63;;;15.01
82297;BMP280;71899;51.992;8.648;2023-08-30T05:16:20;99398.69;;;15.23
82297;BMP280;71899;51.992;8.648;2023-08-30T05:18:47;99394.69;;;15.29
82297;BMP280;71899;51.992;8.648;2023-08-30T05:21:15;99391.00;;;15.49
82297;BMP280;71899;51.992;8.648;2023-08-30T05:23:41;99390.53;;;15.81
82297;BMP280;71899;51.992;8.648;2023-08-30T05:26:10;99399.13;;;16.01
82297;BMP280;71899;51.992;8.648;2023-08-30T05:28:38;99389.56;;;16.17
82297;BMP280;71899;51.992;8.648;2023-08-30T05:31:04;99401.53;;;16.29
82297;BMP280;71899;51.992;8.648;2023-08-30T05:33:56;99392.09;;;16.45
82297;BMP280;71899;51.992;8.648;2023-08-30T05:36:42;99385.69;;;16.47
82297;BMP280;71899;51.992;8.648;2023-08-30T05:39:34;99379.72;;;16.45
82297;BMP280;71899;51.992;8.648;2023-08-30T05:41:59;99378.97;;;16.53
82297;BMP280;71899;51.992;8.648;2023-08-30T05:44:24;99376.69;;;16.75
82297;BMP280;71899;51.992;8.648;2023-08-30T05:46:50;99370.31;;;16.86
82297;BMP280;71899;51.992;8.648;2023-08-30T05:49:15;99359.78;;;16.25
82297;BMP280;71899;51.992;8.648;2023-08-30T05:51:40;99368.97;;;16.56
82297;BMP280;71899;51.992;8.648;2023-08-30T05:54:06;99371.09;;;16.78
82297;BMP280;71899;51.992;8.648;2023-08-30T05:56:31;99378.06;;;16.88
82297;BMP280;71899;51.992;8.648;2023-08-30T05:58:56;99374.69;;;16.69
82297;BMP280;71899;51.992;8.648;2023-08-30T06:01:22;99376.13;;;16.90
82297;BMP280;71899;51.992;8.648;2023-08-30T06:03:47;99368.06;;;16.99
82297;BMP280;71899;51.992;8.648;2023-08-30T06:06:15;99372.94;;;17.12
82297;BMP280;71899;51.992;8.648;2023-08-30T06:08:40;99365.53;;;17.23
82297;BMP280;71899;51.992;8.648;2023-08-30T06:11:05;99367.66;;;17.12
82297;BMP280;71899;51.992;8.648;2023-08-30T06:13:31;99365.06;;;17.28
82297;BMP280;71899;51.992;8.648;2023-08-30T06:15:56;99354.22;;;17.39
82297;BMP280;71899;51.992;8.648;2023-08-30T06:18:21;99360.03;;;17.51
82297;BMP280;71899;51.992;8.648;2023-08-30T06:20:47;99354.78;;;17.59
82297;BMP280;71899;51.992;8.648;2023-08-30T06:23:13;99357.66;;;17.65
82297;BMP280;71899;51.992;8.648;2023-08-30T06:25:39;99352.78;;;17.53
82297;BMP280;71899;51.992;8.648;2023-08-30T06:28:04;99354.50;;;17.62
82297;BMP280;71899;51.992;8.648;2023-08-30T06:30:30;99349.53;;;17.67
82297;BMP280;71899;51.992;8.648;2023-08-30T06:32:56;99348.72;;;17.74
82297;BMP280;71899;51.992;8.648;2023-08-30T06:35:22;99342.31;;;17.93
82297;BMP280;71899;51.992;8.648;2023-08-30T06:37:47;99337.69;;;17.95
82297;BMP280;71899;51.992;8.648;2023-08-30T06:40:12;99336.19;;;18.09
82297;BMP280;71899;51.992;8.648;2023-08-30T06:42:38;99328.75;;;18.12
82297;BMP280;71899;51.992;8.648;2023-08-30T06:45:04;99333.22;;;18.28
82297;BMP280;71899;51.992;8.648;2023-08-30T06:47:29;99331.06;;;18.56
82297;BMP280;71899;51.992;8.648;2023-08-30T06:49:54;99327.88;;;18.76
82297;BMP280;71899;51.992;8.648;2023-08-30T06:52:20;99333.78;;;18.95
82297;BMP280;71899;51.992;8.648;2023-08-30T06:54:45;99335.53;;;19.18
82297;BMP280;71899;51.992;8.648;2023-08-30T06:57:10;99331.94;;;19.11
82297;BMP280;71899;51.992;8.648;2023-08-30T06:59:36;99333.44;;;19.45
82297;BMP280;71899;51.992;8.648;2023-08-30T07:02:02;99323.72;;;19.68
82297;BMP280;71899;51.992;8.648;2023-08-30T07:04:27;99320.16;;;19.98
82297;BMP280;71899;51.992;8.648;2023-08-30T07:06:53;99322.00;;;20.58
82297;BMP280;71899;51.992;8.648;2023-08-30T07:09:18;99327.16;;;20.89
82297;BMP280;71899;51.992;8.648;2023-08-30T07:11:44;99319.25;;;21.10
82297;BMP280;71899;51.992;8.648;2023-08-30T07:14:11;99320.72;;;21.63
82297;BMP280;71899;51.992;8.648;2023-08-30T07:16:37;99320.41;;;21.72
82297;BMP280;71899;51.992;8.648;2023-08-30T07:19:03;99310.31;;;22.25
82297;BMP280;71899;51.992;8.648;2023-08-30T07:21:28;99309.97;;;22.62
82297;BMP280;71899;51.992;8.648;2023-08-30T07:23:54;99316.06;;;22.56
82297;BMP280;71899;51.992;8.648;2023-08-30T07:26:19;99323.41;;;22.27
82297;BMP280;71899;51.992;8.648;2023-08-30T07:28:45;99321.88;;;22.94
82297;BMP280;71899;51.992;8.648;2023-08-30T07:31:10;99316.66;;;23.14
82297;BMP280;71899;51.992;8.648;2023-08-30T07:33:38;99313.53;;;23.04
82297;BMP280;71899;51.992;8.648;2023-08-30T07:36:04;99303.09;;;23.50
82297;BMP280;71899;51.992;8.648;2023-08-30T07:38:30;99300.91;;;23.26
82297;BMP280;71899;51.992;8.648;2023-08-30T07:40:56;99296.34;;;23.74
82297;BMP280;71899;51.992;8.648;2023-08-30T07:43:21;99292.09;;;24.45
82297;BMP280;71899;51.992;8.648;2023-08-30T07:45:46;99293.47;;;24.80
82297;BMP280;71899;51.992;8.648;2023-08-30T07:48:12;99295.19;;;25.26
82297;BMP280;71899;51.992;8.648;2023-08-30T07:50:37;99295.00;;;24.43
82297;BMP280;71899;51.992;8.648;2023-08-30T07:53:03;99295.47;;;25.04
82297;BMP280;71899;51.992;8.648;2023-08-30T07:55:28;99294.50;;;25.43
82297;BMP280;71899;51.992;8.648;2023-08-30T07:57:53;99293.50;;;25.76
82297;BMP280;71899;51.992;8.648;2023-08-30T08:00:19;99291.38;;;26.40
82297;BMP280;71899;51.992;8.648;2023-08-30T08:02:44;99289.38;;;26.36
82297;BMP280;71899;51.992;8.648;2023-08-30T08:05:09;99286.41;;;26.44
82297;BMP280;71899;51.992;8.648;2023-08-30T08:07:38;99284.84;;;26.54
82297;BMP280;71899;51.992;8.648;2023-08-30T08:10:03;99281.34;;;27.63
82297;BMP280;71899;51.992;8.648;2023-08-30T08:12:30;99278.06;;;28.02
82297;BMP280;71899;51.992;8.648;2023-08-30T08:14:55;99287.56;;;27.75
82297;BMP280;71899;51.992;8.648;2023-08-30T08:17:20;99282.91;;;28.35
82297;BMP280;71899;51.992;8.648;2023-08-30T08:19:47;99287.06;;;28.08
82297;BMP280;71899;51.992;8.648;2023-08-30T08:22:12;99281.13;;;28.29
82297;BMP280;71899;51.992;8.648;2023-08-30T08:24:37;99278.69;;;29.37
82297;BMP280;71899;51.992;8.648;2023-08-30T08:27:03;99275.16;;;29.37
82297;BMP280;71899;51.992;8.648;2023-08-30T08:29:30;99276.81;;;29.83
82297;BMP280;71899;51.992;8.648;2023-08-30T08:31:59;99270.56;;;29.94
82297;BMP280;71899;51.992;8.648;2023-08-30T08:34:25;99271.69;;;28.73
82297;BMP280;71899;51.992;8.648;2023-08-30T08:36:50;99269.91;;;28.90
82297;BMP280;71899;51.992;8.648;2023-08-30T08:39:16;99277.09;;;29.13
82297;BMP280;71899;51.992;8.648;2023-08-30T08:41:42;99273.13;;;29.72
82297;BMP280;71899;51.992;8.648;2023-08-30T08:44:09;99279.84;;;28.55
82297;BMP280;71899;51.992;8.648;2023-08-30T08:46:35;99273.25;;;29.09
82297;BMP280;71899;51.992;8.648;2023-08-30T08:49:08;99268.56;;;29.16
82297;BMP280;71899;51.992;8.648;2023-08-30T08:51:35;99273.50;;;29.47
82297;BMP280;71899;51.992;8.648;2023-08-30T08:54:02;99271.56;;;29.88
82297;BMP280;71899;51.992;8.648;2023-08-30T08:56:30;99270.53;;;28.69
82297;BMP280;71899;51.992;8.648;2023-08-30T08:58:56;99272.34;;;27.69
82297;BMP280;71899;51.992;8.648;2023-08-30T09:01:21;99263.97;;;28.53
82297;BMP280;71899;51.992;8.648;2023-08-30T09:03:47;99263.06;;;29.11
82297;BMP280;71899;51.992;8.648;2023-08-30T09:06:13;99260.38;;;28.71
82297;BMP280;71899;51.992;8.648;2023-08-30T09:08:38;99262.78;;;28.96
82297;BMP280;71899;51.992;8.648;2023-08-30T09:11:04;99258.66;;;28.93
82297;BMP280;71899;51.992;8.648;2023-08-30T09:13:29;99254.00;;;28.54
82297;BMP280;71899;51.992;8.648;2023-08-30T09:15:56;99253.78;;;28.44
82297;BMP280;71899;51.992;8.648;2023-08-30T09:18:21;99258.34;;;28.55
82297;BMP280;71899;51.992;8.648;2023-08-30T09:20:46;99263.03;;;28.36
82297;BMP280;71899;51.992;8.648;2023-08-30T09:23:21;99264.53;;;28.09
82297;BMP280;71899;51.992;8.648;2023-08-30T09:25:47;99274.53;;;27.31
82297;BMP280;71899;51.992;8.648;2023-08-30T09:28:12;99267.75;;;27.46
82297;BMP280;71899;51.992;8.648;2023-08-30T09:30:39;99265.22;;;27.63
82297;BMP280;71899;51.992;8.648;2023-08-30T09:33:04;99257.66;;;28.25
82297;BMP280;71899;51.992;8.648;2023-08-30T09:35:30;99256.03;;;27.71
82297;BMP280;71899;51.992;8.648;2023-08-30T09:37:55;99255.78;;;27.61
82297;BMP280;71899;51.992;8.648;2023-08-30T09:40:22;99246.22;;;29.04
82297;BMP280;71899;51.992;8.648;2023-08-30T09:42:47;99245.19;;;29.62
82297;BMP280;71899;51.992;8.648;2023-08-30T09:45:22;99245.38;;;28.52
82297;BMP280;71899;51.992;8.648;2023-08-30T09:47:50;99243.28;;;28.19
82297;BMP280;71899;51.992;8.648;2023-08-30T09:50:20;99240.34;;;27.56
82297;BMP280;71899;51.992;8.648;2023-08-30T09:52:46;99233.03;;;27.15
82297;BMP280;71899;51.992;8.648;2023-08-30T09:55:14;99240.16;;;26.91
82297;BMP280;71899;51.992;8.648;2023-08-30T09:57:41;99236.81;;;25.85
82297;BMP280;71899;51.992;8.648;2023-08-30T10:00:08;99233.59;;;26.26
82297;BMP280;71899;51.992;8.648;2023-08-30T10:02:34;99236.41;;;27.10
82297;BMP280;71899;51.992;8.648;2023-08-30T10:04:59;99233.06;;;26.79
82297;BMP280;71899;51.992;8.648;2023-08-30T10:07:25;99237.41;;;26.12
82297;BMP280;71899;51.992;8.648;2023-08-30T10:09:51;99228.81;;;27.07
82297;BMP280;71899;51.992;8.648;2023-08-30T10:12:20;99222.84;;;27.53
82297;BMP280;71899;51.992;8.648;2023-08-30T10:14:47;99221.44;;;27.63
82297;BMP280;71899;51.992;8.648;2023-08-30T10:17:14;99214.97;;;27.22
82297;BMP280;71899;51.992;8.648;2023-08-30T10:19:43;99222.06;;;27.17
82297;BMP280;71899;51.992;8.648;2023-08-30T10:22:09;99219.47;;;26.37
82297;BMP280;71899;51.992;8.648;2023-08-30T10:25:17;99214.75;;;26.57
82297;BMP280;71899;51.992;8.648;2023-08-30T10:27:46;99203.44;;;27.22
82297;BMP280;71899;51.992;8.648;2023-08-30T10:30:13;99210.78;;;27.26
82297;BMP280;71899;51.992;8.648;2023-08-30T10:32:42;99208.56;;;26.14
82297;BMP280;71899;51.992;8.648;2023-08-30T10:35:12;99206.09;;;26.12
82297;BMP280;71899;51.992;8.648;2023-08-30T10:37:41;99204.59;;;26.59
82297;BMP280;71899;51.992;8.648;2023-08-30T10:40:07;99198.34;;;26.66
82297;BMP280;71899;51.992;8.648;2023-08-30T10:42:33;99203.34;;;25.70
82297;BMP280;71899;51.992;8.648;2023-08-30T10:45:05;99196.63;;;26.35
82297;BMP280;71899;51.992;8.648;2023-08-30T10:47:34;99193.06;;;26.16
82297;BMP280;71899;51.992;8.648;2023-08-30T10:50:05;99195.84;;;26.89
82297;BMP280;71899;51.992;8.648;2023-08-30T10:52:30;99192.47;;;27.53
82297;BMP280;71899;51.992;8.648;2023-08-30T10:55:10;99201.38;;;25.90
82297;BMP280;71899;51.992;8.648;2023-08-30T10:57:36;99201.72;;;25.69
82297;BMP280;71899;51.992;8.648;2023-08-30T11:02:44;99181.34;;;25.68
82297;BMP280;71899;51.992;8.648;2023-08-30T11:05:10;99180.13;;;25.32
82297;BMP280;71899;51.992;8.648;2023-08-30T11:07:36;99171.91;;;25.90
82297;BMP280;71899;51.992;8.648;2023-08-30T11:10:04;99175.22;;;25.60
82297;BMP280;71899;51.992;8.648;2023-08-30T11:12:30;99173.00;;;26.43
82297;BMP280;71899;51.992;8.648;2023-08-30T11:14:56;99174.59;;;25.90
82297;BMP280;71899;51.992;8.648;2023-08-30T11:17:22;99170.03;;;26.51
82297;BMP280;71899;51.992;8.648;2023-08-30T11:19:51;99171.03;;;25.96
82297;BMP280;71899;51.992;8.648;2023-08-30T11:22:17;99168.56;;;26.12
82297;BMP280;71899;51.992;8.648;2023-08-30T11:24:42;99172.41;;;25.49
82297;BMP280;71899;51.992;8.648;2023-08-30T11:27:09;99183.81;;;24.36
82297;BMP280;71899;51.992;8.648;2023-08-30T11:29:34;99180.28;;;23.37
82297;BMP280;71899;51.992;8.648;2023-08-30T11:32:00;99184.53;;;22.98
82297;BMP280;71899;51.992;8.648;2023-08-30T11:34:25;99177.69;;;23.50
82297;BMP280;71899;51.992;8.648;2023-08-30T11:36:50;99171.94;;;23.53
82297;BMP280;71899;51.992;8.648;2023-08-30T11:39:16;99179.53;;;22.76
82297;BMP280;71899;51.992;8.648;2023-08-30T11:41:43;99173.38;;;22.41
82297;BMP280;71899;51.992;8.648;2023-08-30T11:44:09;99172.16;;;22.78
82297;BMP280;71899;51.992;8.648;2023-08-30T11:46:34;99164.59;;;22.81
82297;BMP280;71899;51.992;8.648;2023-08-30T11:49:00;99162.84;;;23.08
82297;BMP280;71899;51.992;8.648;2023-08-30T11:51:26;99154.22;;;23.12
82297;BMP280;71899;51.992;8.648;2023-08-30T11:53:52;99140.75;;;23.60
82297;BMP280;71899;51.992;8.648;2023-08-30T11:56:18;99138.22;;;25.20
82297;BMP280;71899;51.992;8.648;2023-08-30T11:58:44;99125.75;;;26.31
82297;BMP280;71899;51.992;8.648;2023-08-30T12:01:09;99128.97;;;26.57
82297;BMP280;71899;51.992;8.648;2023-08-30T12:03:35;99119.09;;;27.29
82297;BMP280;71899;51.992;8.648;2023-08-30T12:06:01;99111.31;;;26.98
82297;BMP280;71899;51.992;8.648;2023-08-30T12:08:30;99115.09;;;27.96
82297;BMP280;71899;51.992;8.648;2023-08-30T12:10:57;99116.97;;;27.73
82297;BMP280;71899;51.992;8.648;2023-08-30T12:13:26;99111.28;;;27.28
82297;BMP280;71899;51.992;8.648;2023-08-30T12:15:52;99114.81;;;26.98
82297;BMP280;71899;51.992;8.648;2023-08-30T12:18:23;99116.44;;;25.72
82297;BMP280;71899;51.992;8.648;2023-08-30T12:20:54;99112.19;;;26.44
82297;BMP280;71899;51.992;8.648;2023-08-30T12:23:20;99105.84;;;27.04
82297;BMP280;71899;51.992;8.648;2023-08-30T12:25:56;99098.03;;;26.55
82297;BMP280;71899;51.992;8.648;2023-08-30T12:28:22;99112.97;;;25.72
82297;BMP280;71899;51.992;8.648;2023-08-30T12:30:47;99106.66;;;24.59
82297;BMP280;71899;51.992;8.648;2023-08-30T12:33:16;99103.03;;;24.91
82297;BMP280;71899;51.992;8.648;2023-08-30T12:35:41;99113.81;;;24.14
82297;BMP280;71899;51.992;8.648;2023-08-30T12:38:06;99110.88;;;24.35
82297;BMP280;71899;51.992;8.648;2023-08-30T12:40:32;99114.22;;;24.68
82297;BMP280;71899;51.992;8.648;2023-08-30T12:42:57;99119.84;;;24.98
82297;BMP280;71899;51.992;8.648;2023-08-30T12:45:22;99115.69;;;23.81
82297;BMP280;71899;51.992;8.648;2023-08-30T12:47:48;99127.50;;;21.76
82297;BMP280;71899;51.992;8.648;2023-08-30T12:50:13;99130.84;;;21.57
82297;BMP280;71899;51.992;8.648;2023-08-30T12:52:38;99134.16;;;20.81
82297;BMP280;71899;51.992;8.648;2023-08-30T12:55:04;99141.53;;;20.50
82297;BMP280;71899;51.992;8.648;2023-08-30T12:57:29;99146.78;;;20.28
82297;BMP280;71899;51.992;8.648;2023-08-30T12:59:54;99154.28;;;19.73
82297;BMP280;71899;51.992;8.648;2023-08-30T13:02:20;99157.16;;;18.95
82297;BMP280;71899;51.992;8.648;2023-08-30T13:04:45;99162.78;;;19.00
82297;BMP280;71899;51.992;8.648;2023-08-30T13:07:10;99171.53;;;18.70
82297;BMP280;71899;51.992;8.648;2023-08-30T13:09:36;99167.91;;;18.71
82297;BMP280;71899;51.992;8.648;2023-08-30T13:12:01;99167.16;;;18.85
82297;BMP280;71899;51.992;8.648;2023-08-30T13:14:26;99164.44;;;18.70
82297;BMP280;71899;51.992;8.648;2023-08-30T13:16:52;99159.44;;;18.28
82297;BMP280;71899;51.992;8.648;2023-08-30T13:19:17;99161.06;;;18.76
82297;BMP280;71899;51.992;8.648;2023-08-30T13:21:42;99151.84;;;19.03
82297;BMP280;71899;51.992;8.648;2023-08-30T13:24:08;99152.06;;;19.39
82297;BMP280;71899;51.992;8.648;2023-08-30T13:26:33;99148.72;;;19.68
82297;BMP280;71899;51.992;8.648;2023-08-30T13:28:58;99147.38;;;19.87
82297;BMP280;71899;51.992;8.648;2023-08-30T13:31:27;99148.03;;;20.18
82297;BMP280;71899;51.992;8.648;2023-08-30T13:33:52;99152.47;;;19.88
82297;BMP280;71899;51.992;8.648;2023-08-30T13:36:17;99157.44;;;19.91
82297;BMP280;71899;51.992;8.648;2023-08-30T13:38:43;99163.06;;;19.73
82297;BMP280;71899;51.992;8.648;2023-08-30T13:41:08;99169.06;;;19.53
82297;BMP280;71899;51.992;8.648;2023-08-30T13:43:33;99173.78;;;19.43
82297;BMP280;71899;51.992;8.648;2023-08-30T13:45:59;99178.50;;;19.24
82297;BMP280;71899;51.992;8.648;2023-08-30T13:48:24;99182.47;;;18.67
82297;BMP280;71899;51.992;8.648;2023-08-30T13:50:50;99185.53;;;18.40
82297;BMP280;71899;51.992;8.648;2023-08-30T13:53:15;99192.09;;;17.97
82297;BMP280;71899;51.992;8.648;2023-08-30T13:55:45;99182.31;;;18.05
82297;BMP280;71899;51.992;8.648;2023-08-30T13:58:10;99181.81;;;18.10
82297;BMP280;71899;51.992;8.648;2023-08-30T14:00:35;99180.19;;;17.93
82297;BMP280;71899;51.992;8.648;2023-08-30T14:03:01;99192.25;;;18.03
82297;BMP280;71899;51.992;8.648;2023-08-30T14:05:27;99195.25;;;17.76
82297;BMP280;71899;51.992;8.648;2023-08-30T14:07:52;99192.91;;;17.49
82297;BMP280;71899;51.992;8.648;2023-08-30T14:10:18;99197.34;;;17.24
82297;BMP280;71899;51.992;8.648;2023-08-30T14:12:43;99199.50;;;17.28